»·PEaware :: UPS2511 KPDX-KSEA

UPS2511 :: KPDX-KSEA

FLIGHT INFORMATION

Flight Status: Arrived
Operator:
United Parcel Service
More flights by this operator :: More flights under this callsign
Pilot: Kyle M. (9350)
Aircraft: BOEING 757-200
(B752)
More flights by this aircraft type
Origin: KPDX Portland Intl
United States
Destination: KSEA Seattle-Tacoma Intl
United States
More flights between these airports :: More routes between these airports
Route: COUGA KRIEG HAWKZ7
File this flight plan on PilotEdge
Remarks: CptCanada YouTube Live Streams
Altitude:
(Current/Filed)
16,000ft
Speed:
(Current/Filed)
425kts
Departed: 13-Oct-19 10:30 AM
Arrived: 13-Oct-19 11:06 AM
Distance/Time
Traveled:
113nm/0:35
Distance/Time
To Go:
Arrived

Flight Plot

Page will automatically refresh every two minutes.

Flight plan parsing failed; only flown route is shown


Map Options




Map Legend


Flown Route
Filed Route
Departure Airport
Arrival Airport
Navaid (VOR, NDB)
Fix

Horizontal Profiles

Position Reports

Time Latitude Longitude Heading Altitude Ground
Speed
13-Oct-19 09:52 45.583927 -122.609379 134 34ft 0kts
13-Oct-19 09:53 45.583927 -122.609379 134 34ft 0kts
13-Oct-19 09:54 45.583927 -122.609379 134 34ft 0kts
13-Oct-19 09:55 45.583927 -122.609379 134 34ft 0kts
13-Oct-19 09:56 45.583927 -122.609379 134 34ft 0kts
13-Oct-19 09:57 45.583927 -122.609379 134 34ft 0kts
13-Oct-19 09:58 45.583927 -122.609379 134 34ft 0kts
13-Oct-19 09:59 45.583927 -122.609379 134 34ft 0kts
13-Oct-19 10:00 45.583927 -122.609379 134 34ft 0kts
13-Oct-19 10:01 45.583927 -122.609379 134 34ft 0kts
13-Oct-19 10:02 45.583927 -122.609379 134 34ft 0kts
13-Oct-19 10:03 45.583927 -122.609379 134 34ft 0kts
13-Oct-19 10:04 45.583927 -122.609379 134 34ft 0kts
13-Oct-19 10:05 45.583927 -122.609379 134 34ft 0kts
13-Oct-19 10:06 45.583927 -122.609379 134 34ft 0kts
13-Oct-19 10:07 45.583927 -122.609379 134 34ft 0kts
13-Oct-19 10:08 45.583927 -122.609379 134 34ft 0kts
13-Oct-19 10:09 45.583927 -122.609379 134 34ft 0kts
13-Oct-19 10:10 45.583927 -122.609379 134 34ft 0kts
13-Oct-19 10:11 45.583927 -122.609379 134 34ft 0kts
13-Oct-19 10:12 45.583927 -122.609379 134 33ft 0kts
13-Oct-19 10:13 45.583927 -122.609379 134 33ft 0kts
13-Oct-19 10:14 45.583927 -122.609379 134 33ft 0kts
13-Oct-19 10:15 45.583927 -122.609379 134 33ft 0kts
13-Oct-19 10:16 45.583927 -122.609379 134 33ft 0kts
13-Oct-19 10:17 45.583927 -122.609379 134 33ft 0kts
13-Oct-19 10:18 45.583927 -122.609379 134 33ft 0kts
13-Oct-19 10:19 45.584265 -122.609953 101 33ft 2kts
13-Oct-19 10:20 45.584134 -122.610521 43 33ft 0kts
13-Oct-19 10:21 45.584135 -122.610520 43 33ft 0kts
13-Oct-19 10:22 45.584696 -122.609701 45 33ft 11kts
13-Oct-19 10:23 45.586881 -122.608257 44 33ft 10kts
13-Oct-19 10:24 45.588838 -122.608501 299 33ft 12kts
13-Oct-19 10:25 45.590080 -122.614490 296 33ft 15kts
13-Oct-19 10:26 45.592129 -122.619760 298 33ft 14kts
13-Oct-19 10:27 45.593558 -122.622470 11 33ft 7kts
13-Oct-19 10:28 45.594490 -122.619789 119 33ft 18kts
13-Oct-19 10:29 45.578732 -122.579665 119 696ft 168kts
13-Oct-19 10:30 45.551435 -122.512251 118 1837ft 229kts
13-Oct-19 10:31 45.517757 -122.426878 119 4017ft 256kts
13-Oct-19 10:32 45.523848 -122.334263 32 6443ft 265kts
13-Oct-19 10:33 45.585768 -122.365086 311 8871ft 265kts
13-Oct-19 10:34 45.638684 -122.446618 312 10258ft 317kts
13-Oct-19 10:35 45.721837 -122.509295 338 12296ft 351kts
13-Oct-19 10:36 45.816637 -122.551243 341 14542ft 362kts
13-Oct-19 10:37 45.914998 -122.594150 340 16006ft 384kts
13-Oct-19 10:38 46.018934 -122.640381 340 15997ft 390kts
13-Oct-19 10:39 46.124858 -122.679064 349 16002ft 393kts
13-Oct-19 10:40 46.231685 -122.702899 349 16001ft 393kts
13-Oct-19 10:41 46.339993 -122.721125 355 15995ft 376kts
13-Oct-19 10:42 46.444381 -122.725064 355 16001ft 371kts
13-Oct-19 10:43 46.547983 -122.728730 356 16001ft 371kts
13-Oct-19 10:44 46.651485 -122.731010 355 15809ft 358kts
13-Oct-19 10:45 46.750451 -122.734474 355 13337ft 341kts
13-Oct-19 10:46 46.838043 -122.708773 15 11547ft 322kts
13-Oct-19 10:47 46.921684 -122.665984 17 10375ft 314kts
13-Oct-19 10:48 47.000285 -122.624620 18 9301ft 276kts
13-Oct-19 10:49 47.072208 -122.584717 19 8779ft 276kts
13-Oct-19 10:50 47.143071 -122.546068 18 7598ft 269kts
13-Oct-19 10:51 47.212842 -122.508650 18 6397ft 265kts
13-Oct-19 10:52 47.281684 -122.472312 18 6008ft 263kts
13-Oct-19 10:53 47.351041 -122.440865 4 6015ft 260kts
13-Oct-19 10:54 47.423268 -122.430243 4 6006ft 259kts
13-Oct-19 10:55 47.495439 -122.419677 4 6002ft 259kts
13-Oct-19 10:56 47.568381 -122.419754 354 5249ft 266kts
13-Oct-19 10:57 47.642901 -122.428095 354 4009ft 265kts
13-Oct-19 10:58 47.701218 -122.391550 77 4016ft 251kts
13-Oct-19 10:59 47.683720 -122.305031 170 4015ft 229kts
13-Oct-19 11:00 47.623861 -122.306118 181 3614ft 213kts
13-Oct-19 11:01 47.573265 -122.306721 181 2633ft 173kts
13-Oct-19 11:02 47.525832 -122.307195 180 1696ft 161kts
13-Oct-19 11:03 47.486415 -122.307592 182 920ft 135kts
13-Oct-19 11:04 47.451093 -122.307892 179 445ft 74kts
13-Oct-19 11:05 47.446608 -122.306318 3 444ft 7kts
13-Oct-19 11:06 47.450223 -122.306286 0 444ft 18kts
13-Oct-19 11:07 47.455642 -122.306228 0 444ft 17kts
13-Oct-19 11:08 47.460190 -122.306185 0 444ft 17kts
13-Oct-19 11:09 47.461497 -122.302737 170 444ft 8kts
13-Oct-19 11:10 47.460982 -122.302716 179 444ft 0kts

Navigation Log

Ident Type
Flight plan parsing failed, navigation log unavailable